sensor_id;sensor_type;location;lat;lon;timestamp;pressure;altitude;pressure_sealevel;temperature;humidity
16806;BME280;8520;50.102;20.010;2022-11-24T00:01:12;97308.25;;;4.89;77.54
16806;BME280;8520;50.102;20.010;2022-11-24T00:03:41;97303.72;;;4.95;77.08
16806;BME280;8520;50.102;20.010;2022-11-24T00:06:11;97312.84;;;4.55;77.58
16806;BME280;8520;50.102;20.010;2022-11-24T00:08:42;97312.34;;;4.84;77.61
16806;BME280;8520;50.102;20.010;2022-11-24T00:11:12;97313.72;;;4.89;77.21
16806;BME280;8520;50.102;20.010;2022-11-24T00:13:41;97313.09;;;4.94;77.10
16806;BME280;8520;50.102;20.010;2022-11-24T00:16:12;97326.31;;;4.95;77.04
16806;BME280;8520;50.102;20.010;2022-11-24T00:18:42;97323.72;;;4.92;77.25
16806;BME280;8520;50.102;20.010;2022-11-24T00:21:10;97322.97;;;4.82;77.03
16806;BME280;8520;50.102;20.010;2022-11-24T00:23:39;97325.22;;;4.93;76.90
16806;BME280;8520;50.102;20.010;2022-11-24T00:26:09;97319.91;;;4.98;76.84
16806;BME280;8520;50.102;20.010;2022-11-24T00:28:38;97323.88;;;4.97;76.83
16806;BME280;8520;50.102;20.010;2022-11-24T00:31:15;97328.84;;;5.08;76.74
16806;BME280;8520;50.102;20.010;2022-11-24T00:33:45;97339.94;;;4.95;76.64
16806;BME280;8520;50.102;20.010;2022-11-24T00:36:14;97336.56;;;5.09;76.39
16806;BME280;8520;50.102;20.010;2022-11-24T00:38:43;97338.53;;;5.09;76.56
16806;BME280;8520;50.102;20.010;2022-11-24T00:41:12;97338.84;;;5.02;76.43
16806;BME280;8520;50.102;20.010;2022-11-24T00:43:40;97340.50;;;5.08;76.67
16806;BME280;8520;50.102;20.010;2022-11-24T00:46:10;97344.16;;;5.05;76.48
16806;BME280;8520;50.102;20.010;2022-11-24T00:48:39;97346.16;;;5.05;76.98
16806;BME280;8520;50.102;20.010;2022-11-24T00:51:10;97349.19;;;4.89;77.47
16806;BME280;8520;50.102;20.010;2022-11-24T00:53:38;97345.41;;;4.95;77.33
16806;BME280;8520;50.102;20.010;2022-11-24T00:56:07;97338.88;;;4.83;78.04
16806;BME280;8520;50.102;20.010;2022-11-24T00:58:36;97344.94;;;5.06;77.50
16806;BME280;8520;50.102;20.010;2022-11-24T01:01:06;97345.38;;;5.04;77.82
16806;BME280;8520;50.102;20.010;2022-11-24T01:03:35;97344.78;;;5.00;77.72
16806;BME280;8520;50.102;20.010;2022-11-24T01:06:06;97338.28;;;4.89;78.25
16806;BME280;8520;50.102;20.010;2022-11-24T01:08:35;97351.75;;;5.01;78.00
16806;BME280;8520;50.102;20.010;2022-11-24T01:11:09;97352.22;;;5.00;78.07
16806;BME280;8520;50.102;20.010;2022-11-24T01:13:38;97352.66;;;5.07;77.99
16806;BME280;8520;50.102;20.010;2022-11-24T01:16:12;97346.41;;;5.16;77.91
16806;BME280;8520;50.102;20.010;2022-11-24T01:18:40;97356.78;;;4.84;78.09
16806;BME280;8520;50.102;20.010;2022-11-24T01:21:10;97352.22;;;5.00;79.02
16806;BME280;8520;50.102;20.010;2022-11-24T01:23:38;97356.28;;;5.13;80.37
16806;BME280;8520;50.102;20.010;2022-11-24T01:26:08;97358.59;;;4.88;78.92
16806;BME280;8520;50.102;20.010;2022-11-24T01:28:37;97355.75;;;4.54;80.39
16806;BME280;8520;50.102;20.010;2022-11-24T01:31:12;97365.31;;;4.41;80.72
16806;BME280;8520;50.102;20.010;2022-11-24T01:33:41;97363.59;;;4.16;81.57
16806;BME280;8520;50.102;20.010;2022-11-24T01:36:11;97362.41;;;4.35;81.67
16806;BME280;8520;50.102;20.010;2022-11-24T01:38:39;97367.28;;;4.40;81.36
16806;BME280;8520;50.102;20.010;2022-11-24T01:41:10;97372.41;;;4.38;81.42
16806;BME280;8520;50.102;20.010;2022-11-24T01:43:39;97368.09;;;3.91;83.09
16806;BME280;8520;50.102;20.010;2022-11-24T01:46:15;97370.38;;;4.02;83.20
16806;BME280;8520;50.102;20.010;2022-11-24T01:48:50;97361.34;;;4.42;82.26
16806;BME280;8520;50.102;20.010;2022-11-24T01:51:23;97358.47;;;4.45;81.37
16806;BME280;8520;50.102;20.010;2022-11-24T01:53:55;97364.38;;;4.62;81.31
16806;BME280;8520;50.102;20.010;2022-11-24T01:56:24;97362.88;;;4.70;80.84
16806;BME280;8520;50.102;20.010;2022-11-24T01:58:56;97367.25;;;4.77;80.51
16806;BME280;8520;50.102;20.010;2022-11-24T02:01:25;97378.94;;;4.41;81.04
16806;BME280;8520;50.102;20.010;2022-11-24T02:03:55;97385.41;;;4.16;82.13
16806;BME280;8520;50.102;20.010;2022-11-24T02:06:26;97389.97;;;4.28;82.22
16806;BME280;8520;50.102;20.010;2022-11-24T02:08:58;97384.31;;;3.95;82.63
16806;BME280;8520;50.102;20.010;2022-11-24T02:11:30;97399.38;;;3.78;83.93
16806;BME280;8520;50.102;20.010;2022-11-24T02:14:00;97390.53;;;4.05;83.26
16806;BME280;8520;50.102;20.010;2022-11-24T02:16:28;97392.22;;;4.29;82.58
16806;BME280;8520;50.102;20.010;2022-11-24T02:18:57;97392.59;;;4.50;82.22
16806;BME280;8520;50.102;20.010;2022-11-24T02:21:26;97386.03;;;4.56;81.53
16806;BME280;8520;50.102;20.010;2022-11-24T02:24:00;97388.63;;;4.42;81.77
16806;BME280;8520;50.102;20.010;2022-11-24T02:26:38;97392.88;;;4.52;81.64
16806;BME280;8520;50.102;20.010;2022-11-24T02:29:08;97398.59;;;4.17;82.37
16806;BME280;8520;50.102;20.010;2022-11-24T02:31:37;97399.63;;;4.20;82.51
16806;BME280;8520;50.102;20.010;2022-11-24T02:34:06;97399.53;;;4.42;82.30
16806;BME280;8520;50.102;20.010;2022-11-24T02:36:34;97391.06;;;4.49;81.97
16806;BME280;8520;50.102;20.010;2022-11-24T02:39:04;97392.44;;;4.63;81.56
16806;BME280;8520;50.102;20.010;2022-11-24T02:41:32;97385.91;;;4.78;80.85
16806;BME280;8520;50.102;20.010;2022-11-24T02:44:02;97401.38;;;4.54;81.33
16806;BME280;8520;50.102;20.010;2022-11-24T02:46:29;97385.28;;;4.65;81.20
16806;BME280;8520;50.102;20.010;2022-11-24T02:48:58;97390.16;;;4.52;81.57
16806;BME280;8520;50.102;20.010;2022-11-24T02:51:26;97402.75;;;4.59;81.57
16806;BME280;8520;50.102;20.010;2022-11-24T02:53:55;97395.13;;;4.44;82.01
16806;BME280;8520;50.102;20.010;2022-11-24T02:56:24;97396.19;;;4.38;82.27
16806;BME280;8520;50.102;20.010;2022-11-24T02:58:52;97402.88;;;4.46;82.31
16806;BME280;8520;50.102;20.010;2022-11-24T03:01:22;97397.72;;;4.48;82.04
16806;BME280;8520;50.102;20.010;2022-11-24T03:03:50;97396.53;;;4.58;82.00
16806;BME280;8520;50.102;20.010;2022-11-24T03:06:18;97398.81;;;4.69;81.87
16806;BME280;8520;50.102;20.010;2022-11-24T03:08:46;97395.00;;;4.75;81.58
16806;BME280;8520;50.102;20.010;2022-11-24T03:11:14;97402.75;;;4.86;81.37
16806;BME280;8520;50.102;20.010;2022-11-24T03:13:42;97395.59;;;4.61;81.48
16806;BME280;8520;50.102;20.010;2022-11-24T03:16:10;97396.38;;;4.52;81.71
16806;BME280;8520;50.102;20.010;2022-11-24T03:18:39;97402.13;;;3.78;83.19
16806;BME280;8520;50.102;20.010;2022-11-24T03:21:07;97400.19;;;3.87;84.17
16806;BME280;8520;50.102;20.010;2022-11-24T03:23:35;97393.38;;;3.92;83.99
16806;BME280;8520;50.102;20.010;2022-11-24T03:26:07;97403.59;;;4.28;83.32
16806;BME280;8520;50.102;20.010;2022-11-24T03:28:36;97400.38;;;4.11;83.42
16806;BME280;8520;50.102;20.010;2022-11-24T03:31:05;97400.72;;;3.73;84.92
16806;BME280;8520;50.102;20.010;2022-11-24T03:33:33;97399.06;;;3.66;85.69
16806;BME280;8520;50.102;20.010;2022-11-24T03:36:04;97397.59;;;3.93;84.56
16806;BME280;8520;50.102;20.010;2022-11-24T03:38:33;97394.63;;;4.09;84.04
16806;BME280;8520;50.102;20.010;2022-11-24T03:41:01;97401.63;;;4.28;83.19
16806;BME280;8520;50.102;20.010;2022-11-24T03:43:29;97399.53;;;4.51;82.51
16806;BME280;8520;50.102;20.010;2022-11-24T03:45:57;97406.22;;;4.59;82.21
16806;BME280;8520;50.102;20.010;2022-11-24T03:48:26;97401.06;;;4.43;81.93
16806;BME280;8520;50.102;20.010;2022-11-24T03:50:55;97409.34;;;4.12;83.08
16806;BME280;8520;50.102;20.010;2022-11-24T03:53:26;97408.06;;;3.54;85.09
16806;BME280;8520;50.102;20.010;2022-11-24T03:55:55;97414.97;;;3.15;86.96
16806;BME280;8520;50.102;20.010;2022-11-24T03:58:23;97421.91;;;2.72;88.83
16806;BME280;8520;50.102;20.010;2022-11-24T04:00:52;97422.81;;;2.69;89.49
16806;BME280;8520;50.102;20.010;2022-11-24T04:03:20;97429.28;;;2.37;91.13
16806;BME280;8520;50.102;20.010;2022-11-24T04:05:49;97427.28;;;2.16;92.11
16806;BME280;8520;50.102;20.010;2022-11-24T04:08:17;97422.78;;;2.35;92.46
16806;BME280;8520;50.102;20.010;2022-11-24T04:10:49;97426.66;;;2.46;92.72
16806;BME280;8520;50.102;20.010;2022-11-24T04:13:20;97429.56;;;2.17;93.05
16806;BME280;8520;50.102;20.010;2022-11-24T04:15:47;97438.91;;;2.29;92.75
16806;BME280;8520;50.102;20.010;2022-11-24T04:18:16;97430.97;;;2.69;91.87
16806;BME280;8520;50.102;20.010;2022-11-24T04:20:44;97440.31;;;2.34;93.10
16806;BME280;8520;50.102;20.010;2022-11-24T04:23:12;97434.06;;;2.80;92.18
16806;BME280;8520;50.102;20.010;2022-11-24T04:25:40;97435.56;;;2.60;91.19
16806;BME280;8520;50.102;20.010;2022-11-24T04:28:11;97439.41;;;2.84;90.90
16806;BME280;8520;50.102;20.010;2022-11-24T04:30:40;97442.03;;;2.75;90.92
16806;BME280;8520;50.102;20.010;2022-11-24T04:33:11;97440.47;;;2.87;91.37
16806;BME280;8520;50.102;20.010;2022-11-24T04:35:39;97429.78;;;3.14;90.04
16806;BME280;8520;50.102;20.010;2022-11-24T04:38:07;97439.88;;;3.35;88.33
16806;BME280;8520;50.102;20.010;2022-11-24T04:40:36;97447.00;;;3.64;87.34
16806;BME280;8520;50.102;20.010;2022-11-24T04:43:04;97444.28;;;3.11;87.60
16806;BME280;8520;50.102;20.010;2022-11-24T04:45:33;97447.22;;;2.82;89.50
16806;BME280;8520;50.102;20.010;2022-11-24T04:48:01;97444.84;;;2.84;89.66
16806;BME280;8520;50.102;20.010;2022-11-24T04:50:29;97444.78;;;2.97;89.59
16806;BME280;8520;50.102;20.010;2022-11-24T04:52:57;97449.84;;;2.85;88.54
16806;BME280;8520;50.102;20.010;2022-11-24T04:55:25;97449.28;;;3.12;88.93
16806;BME280;8520;50.102;20.010;2022-11-24T04:57:53;97455.72;;;3.06;88.97
16806;BME280;8520;50.102;20.010;2022-11-24T05:00:22;97459.63;;;2.48;90.02
16806;BME280;8520;50.102;20.010;2022-11-24T05:02:51;97464.38;;;1.97;92.14
16806;BME280;8520;50.102;20.010;2022-11-24T05:05:19;97465.56;;;2.56;91.55
16806;BME280;8520;50.102;20.010;2022-11-24T05:07:47;97467.44;;;2.94;89.81
16806;BME280;8520;50.102;20.010;2022-11-24T05:10:15;97458.06;;;3.17;88.07
16806;BME280;8520;50.102;20.010;2022-11-24T05:13:03;97460.91;;;3.57;86.39
16806;BME280;8520;50.102;20.010;2022-11-24T05:15:32;97468.13;;;3.29;87.46
16806;BME280;8520;50.102;20.010;2022-11-24T05:18:04;97468.72;;;3.24;86.94
16806;BME280;8520;50.102;20.010;2022-11-24T05:20:32;97464.59;;;2.97;88.70
16806;BME280;8520;50.102;20.010;2022-11-24T05:23:01;97466.88;;;2.64;89.05
16806;BME280;8520;50.102;20.010;2022-11-24T05:25:30;97469.41;;;2.59;89.05
16806;BME280;8520;50.102;20.010;2022-11-24T05:28:00;97475.06;;;2.51;90.63
16806;BME280;8520;50.102;20.010;2022-11-24T05:30:28;97469.94;;;2.66;89.89
16806;BME280;8520;50.102;20.010;2022-11-24T05:32:57;97464.97;;;2.87;87.92
16806;BME280;8520;50.102;20.010;2022-11-24T05:35:26;97469.50;;;2.90;89.08
16806;BME280;8520;50.102;20.010;2022-11-24T05:37:54;97469.25;;;3.19;87.40
16806;BME280;8520;50.102;20.010;2022-11-24T05:40:24;97473.09;;;3.21;87.78
16806;BME280;8520;50.102;20.010;2022-11-24T05:42:52;97480.56;;;3.30;86.82
16806;BME280;8520;50.102;20.010;2022-11-24T05:45:21;97484.06;;;2.96;87.82
16806;BME280;8520;50.102;20.010;2022-11-24T05:47:49;97481.59;;;3.10;87.79
16806;BME280;8520;50.102;20.010;2022-11-24T05:50:20;97484.97;;;3.36;86.90
16806;BME280;8520;50.102;20.010;2022-11-24T05:52:49;97489.16;;;3.50;86.18
16806;BME280;8520;50.102;20.010;2022-11-24T05:55:17;97490.91;;;3.44;85.73
16806;BME280;8520;50.102;20.010;2022-11-24T05:57:46;97495.47;;;3.25;86.14
16806;BME280;8520;50.102;20.010;2022-11-24T06:00:15;97500.41;;;3.61;85.39
16806;BME280;8520;50.102;20.010;2022-11-24T06:02:46;97499.72;;;3.70;84.70
16806;BME280;8520;50.102;20.010;2022-11-24T06:05:14;97506.69;;;3.27;85.17
16806;BME280;8520;50.102;20.010;2022-11-24T06:07:42;97512.34;;;3.11;86.70
16806;BME280;8520;50.102;20.010;2022-11-24T06:12:40;97511.13;;;3.12;87.72
16806;BME280;8520;50.102;20.010;2022-11-24T06:15:09;97514.78;;;2.49;89.02
16806;BME280;8520;50.102;20.010;2022-11-24T06:17:38;97513.25;;;2.10;90.97
16806;BME280;8520;50.102;20.010;2022-11-24T06:20:07;97512.59;;;2.56;90.55
16806;BME280;8520;50.102;20.010;2022-11-24T06:22:36;97528.28;;;2.40;90.90
16806;BME280;8520;50.102;20.010;2022-11-24T06:25:04;97521.06;;;2.59;91.30
16806;BME280;8520;50.102;20.010;2022-11-24T06:27:34;97520.75;;;2.56;90.92
16806;BME280;8520;50.102;20.010;2022-11-24T06:30:02;97521.16;;;2.68;90.78
16806;BME280;8520;50.102;20.010;2022-11-24T06:32:30;97523.13;;;2.54;91.34
16806;BME280;8520;50.102;20.010;2022-11-24T06:34:58;97531.19;;;2.58;91.09
16806;BME280;8520;50.102;20.010;2022-11-24T06:37:26;97526.03;;;2.73;89.74
16806;BME280;8520;50.102;20.010;2022-11-24T06:39:54;97526.88;;;2.82;89.44
16806;BME280;8520;50.102;20.010;2022-11-24T06:42:22;97530.34;;;2.83;89.50
16806;BME280;8520;50.102;20.010;2022-11-24T06:44:52;97531.25;;;2.80;89.60
16806;BME280;8520;50.102;20.010;2022-11-24T06:47:20;97532.38;;;2.44;90.73
16806;BME280;8520;50.102;20.010;2022-11-24T06:49:48;97535.88;;;2.58;90.90
16806;BME280;8520;50.102;20.010;2022-11-24T06:52:16;97539.53;;;2.76;90.26
16806;BME280;8520;50.102;20.010;2022-11-24T06:54:44;97543.25;;;2.44;90.79
16806;BME280;8520;50.102;20.010;2022-11-24T06:57:11;97546.31;;;1.95;92.81
16806;BME280;8520;50.102;20.010;2022-11-24T06:59:39;97543.16;;;2.35;91.87
16806;BME280;8520;50.102;20.010;2022-11-24T07:02:09;97550.53;;;2.60;91.34
16806;BME280;8520;50.102;20.010;2022-11-24T07:04:37;97547.56;;;2.80;90.03
16806;BME280;8520;50.102;20.010;2022-11-24T07:07:05;97541.06;;;2.77;91.23
16806;BME280;8520;50.102;20.010;2022-11-24T07:09:33;97553.78;;;2.55;89.99
16806;BME280;8520;50.102;20.010;2022-11-24T07:12:01;97547.63;;;2.42;91.93
16806;BME280;8520;50.102;20.010;2022-11-24T07:14:30;97554.03;;;3.08;89.29
16806;BME280;8520;50.102;20.010;2022-11-24T07:16:59;97559.28;;;3.02;89.21
16806;BME280;8520;50.102;20.010;2022-11-24T07:19:29;97566.00;;;2.50;89.12
16806;BME280;8520;50.102;20.010;2022-11-24T07:21:57;97563.72;;;2.11;91.25
16806;BME280;8520;50.102;20.010;2022-11-24T07:24:25;97562.94;;;2.61;91.00
16806;BME280;8520;50.102;20.010;2022-11-24T07:26:53;97564.13;;;2.60;90.60
16806;BME280;8520;50.102;20.010;2022-11-24T07:29:21;97563.41;;;2.21;91.54
16806;BME280;8520;50.102;20.010;2022-11-24T07:31:49;97572.53;;;3.00;90.24
16806;BME280;8520;50.102;20.010;2022-11-24T07:34:17;97566.44;;;2.49;91.18
16806;BME280;8520;50.102;20.010;2022-11-24T07:36:46;97574.44;;;2.78;91.09
16806;BME280;8520;50.102;20.010;2022-11-24T07:39:15;97572.59;;;2.88;91.14
16806;BME280;8520;50.102;20.010;2022-11-24T07:41:43;97568.69;;;3.23;90.20
16806;BME280;8520;50.102;20.010;2022-11-24T07:44:11;97565.88;;;2.54;91.98
16806;BME280;8520;50.102;20.010;2022-11-24T07:46:39;97570.56;;;2.41;93.06
16806;BME280;8520;50.102;20.010;2022-11-24T07:49:07;97570.88;;;2.17;93.57
16806;BME280;8520;50.102;20.010;2022-11-24T07:51:35;97568.25;;;2.65;92.77
16806;BME280;8520;50.102;20.010;2022-11-24T07:54:04;97577.28;;;2.62;93.24
16806;BME280;8520;50.102;20.010;2022-11-24T07:56:33;97570.75;;;2.72;92.37
16806;BME280;8520;50.102;20.010;2022-11-24T07:59:00;97571.09;;;3.08;91.63
16806;BME280;8520;50.102;20.010;2022-11-24T08:01:28;97571.41;;;3.23;90.89
16806;BME280;8520;50.102;20.010;2022-11-24T08:03:57;97574.31;;;2.94;91.20
16806;BME280;8520;50.102;20.010;2022-11-24T08:06:26;97573.38;;;2.75;92.06
16806;BME280;8520;50.102;20.010;2022-11-24T08:09:07;97575.31;;;2.88;90.98
16806;BME280;8520;50.102;20.010;2022-11-24T08:11:35;97582.38;;;2.85;92.05
16806;BME280;8520;50.102;20.010;2022-11-24T08:14:03;97584.66;;;3.34;90.51
16806;BME280;8520;50.102;20.010;2022-11-24T08:16:31;97587.28;;;3.59;88.29
16806;BME280;8520;50.102;20.010;2022-11-24T08:18:59;97595.56;;;2.87;90.45
16806;BME280;8520;50.102;20.010;2022-11-24T08:21:27;97592.41;;;3.23;90.36
16806;BME280;8520;50.102;20.010;2022-11-24T08:23:56;97589.84;;;3.41;89.71
16806;BME280;8520;50.102;20.010;2022-11-24T08:26:25;97592.25;;;2.92;90.58
16806;BME280;8520;50.102;20.010;2022-11-24T08:28:55;97601.44;;;2.85;91.40
16806;BME280;8520;50.102;20.010;2022-11-24T08:31:25;97592.06;;;2.86;91.68
16806;BME280;8520;50.102;20.010;2022-11-24T08:33:59;97593.53;;;3.12;91.04
16806;BME280;8520;50.102;20.010;2022-11-24T08:36:28;97601.53;;;2.94;90.82
16806;BME280;8520;50.102;20.010;2022-11-24T08:38:57;97603.84;;;2.45;92.25
16806;BME280;8520;50.102;20.010;2022-11-24T08:41:28;97598.31;;;3.08;91.11
16806;BME280;8520;50.102;20.010;2022-11-24T08:43:56;97603.50;;;2.81;91.62
16806;BME280;8520;50.102;20.010;2022-11-24T08:46:24;97610.56;;;2.78;90.82
16806;BME280;8520;50.102;20.010;2022-11-24T08:48:53;97607.41;;;3.27;90.28
16806;BME280;8520;50.102;20.010;2022-11-24T08:51:23;97607.59;;;2.98;90.53
16806;BME280;8520;50.102;20.010;2022-11-24T08:53:53;97608.94;;;2.81;91.91
16806;BME280;8520;50.102;20.010;2022-11-24T08:56:23;97616.13;;;2.37;94.04
16806;BME280;8520;50.102;20.010;2022-11-24T08:58:53;97613.06;;;2.73;94.10
16806;BME280;8520;50.102;20.010;2022-11-24T09:01:22;97618.25;;;3.05;92.75
16806;BME280;8520;50.102;20.010;2022-11-24T09:03:51;97611.66;;;2.94;92.39
16806;BME280;8520;50.102;20.010;2022-11-24T09:06:21;97613.75;;;3.24;91.01
16806;BME280;8520;50.102;20.010;2022-11-24T09:08:49;97612.84;;;2.80;92.20
16806;BME280;8520;50.102;20.010;2022-11-24T09:11:18;97620.81;;;2.87;92.37
16806;BME280;8520;50.102;20.010;2022-11-24T09:13:46;97609.88;;;3.12;91.23
16806;BME280;8520;50.102;20.010;2022-11-24T09:16:17;97608.44;;;3.21;90.95
16806;BME280;8520;50.102;20.010;2022-11-24T09:18:46;97619.88;;;3.50;89.40
16806;BME280;8520;50.102;20.010;2022-11-24T09:21:16;97616.88;;;2.37;93.22
16806;BME280;8520;50.102;20.010;2022-11-24T09:23:50;97612.84;;;2.93;93.39
16806;BME280;8520;50.102;20.010;2022-11-24T09:26:20;97621.47;;;2.78;92.30
16806;BME280;8520;50.102;20.010;2022-11-24T09:28:48;97614.72;;;2.58;94.82
16806;BME280;8520;50.102;20.010;2022-11-24T09:31:23;97616.34;;;2.30;95.98
16806;BME280;8520;50.102;20.010;2022-11-24T09:33:52;97616.03;;;2.53;95.46
16806;BME280;8520;50.102;20.010;2022-11-24T09:36:20;97618.59;;;3.07;93.17
16806;BME280;8520;50.102;20.010;2022-11-24T09:38:48;97617.50;;;3.05;92.84
16806;BME280;8520;50.102;20.010;2022-11-24T09:41:26;97615.38;;;2.74;93.48
16806;BME280;8520;50.102;20.010;2022-11-24T09:44:01;97622.31;;;2.88;94.44
16806;BME280;8520;50.102;20.010;2022-11-24T09:46:37;97614.13;;;3.13;92.92
16806;BME280;8520;50.102;20.010;2022-11-24T09:49:10;97614.81;;;3.27;92.12
16806;BME280;8520;50.102;20.010;2022-11-24T09:51:42;97620.59;;;2.56;92.85
16806;BME280;8520;50.102;20.010;2022-11-24T09:54:17;97616.78;;;2.53;94.32
16806;BME280;8520;50.102;20.010;2022-11-24T09:56:48;97617.78;;;3.20;93.03
16806;BME280;8520;50.102;20.010;2022-11-24T09:59:19;97615.78;;;2.73;93.63
16806;BME280;8520;50.102;20.010;2022-11-24T10:01:50;97617.03;;;3.19;92.74
16806;BME280;8520;50.102;20.010;2022-11-24T10:04:20;97619.34;;;3.08;93.27
16806;BME280;8520;50.102;20.010;2022-11-24T10:06:57;97617.94;;;2.91;92.86
16806;BME280;8520;50.102;20.010;2022-11-24T10:09:39;97617.09;;;2.81;92.94
16806;BME280;8520;50.102;20.010;2022-11-24T10:12:29;97620.94;;;3.31;92.13
16806;BME280;8520;50.102;20.010;2022-11-24T10:15:24;97623.69;;;3.53;90.98
16806;BME280;8520;50.102;20.010;2022-11-24T10:18:21;97625.63;;;3.18;92.04
16806;BME280;8520;50.102;20.010;2022-11-24T10:21:01;97610.31;;;2.98;91.21
16806;BME280;8520;50.102;20.010;2022-11-24T10:23:50;97618.03;;;3.47;91.36
16806;BME280;8520;50.102;20.010;2022-11-24T10:26:31;97620.28;;;3.61;89.64
16806;BME280;8520;50.102;20.010;2022-11-24T10:29:12;97614.47;;;3.03;91.07
16806;BME280;8520;50.102;20.010;2022-11-24T10:31:42;97618.81;;;3.13;92.36
16806;BME280;8520;50.102;20.010;2022-11-24T10:34:15;97618.16;;;3.43;90.13
16806;BME280;8520;50.102;20.010;2022-11-24T10:36:47;97620.47;;;3.89;90.15
16806;BME280;8520;50.102;20.010;2022-11-24T10:39:21;97620.59;;;3.63;89.43
16806;BME280;8520;50.102;20.010;2022-11-24T10:41:55;97612.38;;;3.76;90.31
16806;BME280;8520;50.102;20.010;2022-11-24T10:44:25;97618.97;;;2.84;92.45
16806;BME280;8520;50.102;20.010;2022-11-24T10:46:53;97618.47;;;3.11;91.84
16806;BME280;8520;50.102;20.010;2022-11-24T10:49:26;97619.72;;;3.32;92.53
16806;BME280;8520;50.102;20.010;2022-11-24T10:52:01;97617.19;;;3.37;91.67
16806;BME280;8520;50.102;20.010;2022-11-24T10:54:31;97625.94;;;3.32;90.90
16806;BME280;8520;50.102;20.010;2022-11-24T10:57:01;97622.78;;;3.56;91.10
16806;BME280;8520;50.102;20.010;2022-11-24T10:59:35;97629.47;;;3.07;91.26
16806;BME280;8520;50.102;20.010;2022-11-24T11:02:29;97624.50;;;3.40;92.13
16806;BME280;8520;50.102;20.010;2022-11-24T11:05:30;97621.41;;;3.17;93.36
16806;BME280;8520;50.102;20.010;2022-11-24T11:08:16;97617.53;;;3.39;92.27
16806;BME280;8520;50.102;20.010;2022-11-24T11:10:46;97616.31;;;3.40;91.40
16806;BME280;8520;50.102;20.010;2022-11-24T11:13:23;97618.63;;;3.64;91.35
16806;BME280;8520;50.102;20.010;2022-11-24T11:15:51;97611.38;;;3.13;92.39
16806;BME280;8520;50.102;20.010;2022-11-24T11:18:20;97612.28;;;2.98;93.11
16806;BME280;8520;50.102;20.010;2022-11-24T11:20:53;97622.84;;;2.83;93.18
16806;BME280;8520;50.102;20.010;2022-11-24T11:23:25;97614.97;;;3.10;93.59
16806;BME280;8520;50.102;20.010;2022-11-24T11:26:16;97620.66;;;3.51;92.63
16806;BME280;8520;50.102;20.010;2022-11-24T11:28:59;97622.84;;;3.43;90.05
16806;BME280;8520;50.102;20.010;2022-11-24T11:31:59;97622.78;;;2.61;92.84
16806;BME280;8520;50.102;20.010;2022-11-24T11:34:48;97613.03;;;3.11;93.41
16806;BME280;8520;50.102;20.010;2022-11-24T11:37:19;97623.97;;;3.33;91.78
16806;BME280;8520;50.102;20.010;2022-11-24T11:39:49;97621.19;;;3.11;92.08
16806;BME280;8520;50.102;20.010;2022-11-24T11:42:22;97620.31;;;3.01;93.44
16806;BME280;8520;50.102;20.010;2022-11-24T11:45:14;97629.63;;;2.66;93.54
16806;BME280;8520;50.102;20.010;2022-11-24T11:47:47;97631.22;;;3.14;93.68
16806;BME280;8520;50.102;20.010;2022-11-24T11:50:21;97635.94;;;2.50;94.22
16806;BME280;8520;50.102;20.010;2022-11-24T11:53:02;97632.78;;;2.39;96.76
16806;BME280;8520;50.102;20.010;2022-11-24T11:55:52;97630.41;;;2.66;94.97
16806;BME280;8520;50.102;20.010;2022-11-24T11:58:39;97626.75;;;3.07;93.09
16806;BME280;8520;50.102;20.010;2022-11-24T12:01:22;97626.91;;;3.38;92.53
16806;BME280;8520;50.102;20.010;2022-11-24T12:04:03;97625.69;;;2.92;93.69
16806;BME280;8520;50.102;20.010;2022-11-24T12:06:55;97624.78;;;3.08;93.39
16806;BME280;8520;50.102;20.010;2022-11-24T12:09:36;97623.84;;;3.02;93.31
16806;BME280;8520;50.102;20.010;2022-11-24T12:12:22;97626.88;;;3.04;92.29
16806;BME280;8520;50.102;20.010;2022-11-24T12:14:59;97634.31;;;2.52;94.40
16806;BME280;8520;50.102;20.010;2022-11-24T12:17:39;97631.34;;;2.47;95.11
16806;BME280;8520;50.102;20.010;2022-11-24T12:20:45;97631.13;;;2.54;95.32
16806;BME280;8520;50.102;20.010;2022-11-24T12:23:26;97627.44;;;2.73;95.59
16806;BME280;8520;50.102;20.010;2022-11-24T12:26:04;97636.34;;;2.99;94.00
16806;BME280;8520;50.102;20.010;2022-11-24T12:28:42;97635.50;;;2.51;95.71
16806;BME280;8520;50.102;20.010;2022-11-24T12:31:17;97647.13;;;2.39;96.06
16806;BME280;8520;50.102;20.010;2022-11-24T12:34:11;97631.56;;;3.03;95.04
16806;BME280;8520;50.102;20.010;2022-11-24T12:36:55;97639.84;;;2.62;93.99
16806;BME280;8520;50.102;20.010;2022-11-24T12:39:31;97642.88;;;2.25;95.89
16806;BME280;8520;50.102;20.010;2022-11-24T12:42:08;97645.94;;;1.86;97.68
16806;BME280;8520;50.102;20.010;2022-11-24T12:44:53;97646.19;;;2.04;98.23
16806;BME280;8520;50.102;20.010;2022-11-24T12:47:29;97638.00;;;2.46;96.71
16806;BME280;8520;50.102;20.010;2022-11-24T12:50:08;97645.91;;;2.27;96.64
16806;BME280;8520;50.102;20.010;2022-11-24T12:52:45;97653.44;;;2.49;95.62
16806;BME280;8520;50.102;20.010;2022-11-24T12:55:22;97640.97;;;1.68;98.10
16806;BME280;8520;50.102;20.010;2022-11-24T12:57:54;97656.75;;;1.73;98.23
16806;BME280;8520;50.102;20.010;2022-11-24T13:00:29;97662.41;;;1.79;95.88
16806;BME280;8520;50.102;20.010;2022-11-24T13:03:22;97664.06;;;1.89;95.81
16806;BME280;8520;50.102;20.010;2022-11-24T13:05:57;97657.13;;;1.88;96.12
16806;BME280;8520;50.102;20.010;2022-11-24T13:08:28;97661.31;;;2.05;95.58
16806;BME280;8520;50.102;20.010;2022-11-24T13:11:25;97661.50;;;1.98;95.07
16806;BME280;8520;50.102;20.010;2022-11-24T13:13:57;97674.94;;;1.60;96.09
16806;BME280;8520;50.102;20.010;2022-11-24T13:16:27;97675.72;;;1.60;96.49
16806;BME280;8520;50.102;20.010;2022-11-24T13:19:16;97661.84;;;1.09;97.89
16806;BME280;8520;50.102;20.010;2022-11-24T13:21:49;97684.78;;;1.54;97.47
16806;BME280;8520;50.102;20.010;2022-11-24T13:24:26;97676.94;;;0.94;98.53
16806;BME280;8520;50.102;20.010;2022-11-24T13:33:27;97696.09;;;0.87;99.28
16806;BME280;8520;50.102;20.010;2022-11-24T13:36:30;97683.47;;;1.13;98.94
16806;BME280;8520;50.102;20.010;2022-11-24T13:39:00;97698.50;;;1.01;98.72
16806;BME280;8520;50.102;20.010;2022-11-24T13:44:44;97708.66;;;1.30;98.21
16806;BME280;8520;50.102;20.010;2022-11-24T13:47:40;97703.56;;;1.16;99.21